Time;durP1;ratioP1;P1;durP2;ratioP2;P2;SDS_P1;SDS_P2;PMS_P1;PMS_P2;Temp;Humidity;BMP_temperature;BMP_pressure;BME280_temperature;BME280_humidity;BME280_pressure;Samples;Min_cycle;Max_cycle;Signal;HPM_P1;HPM_P2
2022/12/11 00:00:22;;;;;;;54.35;51.35;;;0.70;99.90;;;;;;5042936;28;20390;-62
2022/12/11 00:02:48;;;;;;;54.38;51.38;;;0.70;99.90;;;;;;5042879;28;20453;-62
2022/12/11 00:05:14;;;;;;;54.93;51.83;;;0.70;99.90;;;;;;5041668;28;20405;-64
2022/12/11 00:07:39;;;;;;;52.80;49.80;;;0.70;99.90;;;;;;5040502;28;20458;-62
2022/12/11 00:10:06;;;;;;;47.60;44.90;;;0.60;99.90;;;;;;5041267;28;20393;-63
2022/12/11 00:12:31;;;;;;;50.15;47.35;;;0.70;99.90;;;;;;5037289;28;20391;-62
2022/12/11 00:14:57;;;;;;;51.93;49.03;;;0.70;99.90;;;;;;5038464;28;20393;-62
2022/12/11 00:17:23;;;;;;;53.60;50.50;;;0.70;99.90;;;;;;5041612;28;20450;-62
2022/12/11 00:19:48;;;;;;;51.93;48.93;;;0.70;99.90;;;;;;5046279;28;20537;-62
2022/12/11 00:22:14;;;;;;;53.67;50.60;;;0.70;99.90;;;;;;5046456;28;20404;-63
2022/12/11 00:24:40;;;;;;;53.53;50.50;;;0.70;99.90;;;;;;5045986;28;20525;-63
2022/12/11 00:27:05;;;;;;;55.03;51.83;;;0.80;99.90;;;;;;5048251;28;20484;-64
2022/12/11 00:29:31;;;;;;;61.00;57.60;;;0.70;99.90;;;;;;5047213;28;20393;-62
2022/12/11 00:31:57;;;;;;;63.05;59.47;;;0.80;99.90;;;;;;5047969;28;20697;-63
2022/12/11 00:34:22;;;;;;;71.15;67.25;;;0.80;99.90;;;;;;5045422;28;20616;-62
2022/12/11 00:36:48;;;;;;;71.83;67.93;;;0.80;99.90;;;;;;5047115;28;20401;-63
2022/12/11 00:39:13;;;;;;;71.10;67.17;;;0.80;99.90;;;;;;5048565;28;20373;-63
2022/12/11 00:41:39;;;;;;;72.63;68.60;;;0.70;99.90;;;;;;5047094;28;20475;-61
2022/12/11 00:44:04;;;;;;;83.18;78.70;;;0.70;99.90;;;;;;5047912;28;20944;-62
2022/12/11 00:46:30;;;;;;;72.97;69.07;;;0.70;99.90;;;;;;5046739;28;20389;-62
2022/12/11 00:48:55;;;;;;;83.10;78.70;;;0.70;99.90;;;;;;5048250;28;20819;-64
2022/12/11 00:51:21;;;;;;;83.95;79.53;;;0.70;99.90;;;;;;5049118;28;20594;-63
2022/12/11 00:53:47;;;;;;;84.40;79.90;;;0.80;99.90;;;;;;5048675;28;20484;-63
2022/12/11 00:56:18;;;;;;;87.45;82.80;;;0.80;99.90;;;;;;5050660;28;20484;-62
2022/12/11 00:58:45;;;;;;;86.25;81.63;;;0.70;99.90;;;;;;5050787;28;20393;-62
2022/12/11 01:01:14;;;;;;;85.30;80.65;;;0.70;99.90;;;;;;5050514;28;20485;-62
2022/12/11 01:03:40;;;;;;;87.47;82.85;;;0.70;99.90;;;;;;5049603;28;20377;-63
2022/12/11 01:06:06;;;;;;;93.45;88.47;;;0.70;99.90;;;;;;5050741;28;20665;-62
2022/12/11 01:08:33;;;;;;;89.50;84.72;;;0.70;99.90;;;;;;5051459;28;20459;-62
2022/12/11 01:11:04;;;;;;;90.70;85.85;;;0.70;99.90;;;;;;5050597;28;20637;-62
2022/12/11 01:13:31;;;;;;;88.63;83.75;;;0.70;99.90;;;;;;5049074;28;20417;-65
2022/12/11 01:15:56;;;;;;;88.73;83.97;;;0.80;99.90;;;;;;5049301;28;20569;-63
2022/12/11 01:18:22;;;;;;;91.23;86.33;;;0.80;99.90;;;;;;5048800;28;20416;-63
2022/12/11 01:20:47;;;;;;;88.63;83.90;;;0.70;99.90;;;;;;5046409;28;20389;-62
2022/12/11 01:23:13;;;;;;;93.55;88.55;;;0.80;99.90;;;;;;5044075;28;20386;-62
2022/12/11 01:25:40;;;;;;;89.63;84.82;;;0.80;99.90;;;;;;5046769;28;20377;-63
2022/12/11 01:28:06;;;;;;;86.50;81.90;;;0.80;99.90;;;;;;5046994;28;20471;-63
2022/12/11 01:30:33;;;;;;;89.45;84.65;;;0.80;99.90;;;;;;5045458;28;20373;-63
2022/12/11 01:32:59;;;;;;;86.13;81.32;;;0.80;99.90;;;;;;5046507;28;20385;-64
2022/12/11 01:35:25;;;;;;;80.47;76.03;;;0.80;99.90;;;;;;5047393;28;20823;-62
2022/12/11 01:37:50;;;;;;;82.53;77.97;;;0.80;99.90;;;;;;5048682;28;20393;-64
2022/12/11 01:40:18;;;;;;;82.20;77.60;;;0.90;99.90;;;;;;5049290;28;20528;-64
2022/12/11 01:42:44;;;;;;;81.00;76.53;;;0.90;99.90;;;;;;5048227;28;20647;-63
2022/12/11 01:45:27;;;;;;;76.83;72.40;;;0.80;99.90;;;;;;5048965;28;20592;-63
2022/12/11 01:48:17;;;;;;;82.20;77.53;;;0.80;99.90;;;;;;5048144;28;20377;-63
2022/12/11 01:50:48;;;;;;;68.45;64.65;;;0.70;99.90;;;;;;5049832;28;20677;-63
2022/12/11 01:53:21;;;;;;;67.15;63.25;;;0.80;99.90;;;;;;5050480;28;20377;-62
2022/12/11 01:55:50;;;;;;;70.67;66.63;;;0.80;99.90;;;;;;5050919;28;20389;-63
2022/12/11 01:58:17;;;;;;;66.88;63.08;;;0.70;99.90;;;;;;5052785;28;20454;-63
2022/12/11 02:00:42;;;;;;;71.95;67.95;;;0.80;99.90;;;;;;5053810;28;20804;-62
2022/12/11 02:03:08;;;;;;;75.13;70.80;;;0.80;99.90;;;;;;5052399;28;20394;-61
2022/12/11 02:05:34;;;;;;;68.07;64.07;;;0.70;99.90;;;;;;5052339;28;20420;-63
2022/12/11 02:08:01;;;;;;;71.97;67.80;;;0.70;99.90;;;;;;5051726;28;20424;-63
2022/12/11 02:10:42;;;;;;;68.32;64.43;;;0.70;99.90;;;;;;5049849;28;20390;-63
2022/12/11 02:13:16;;;;;;;70.88;66.95;;;0.80;99.90;;;;;;5049677;28;20813;-66
2022/12/11 02:15:55;;;;;;;71.43;67.27;;;0.70;99.90;;;;;;5047574;28;20440;-63
2022/12/11 02:18:40;;;;;;;69.28;65.38;;;0.70;99.90;;;;;;5050152;28;20390;-63
2022/12/11 02:21:26;;;;;;;73.17;69.03;;;0.80;99.90;;;;;;5049119;28;20410;-64
2022/12/11 02:23:56;;;;;;;72.72;68.65;;;0.80;99.90;;;;;;5047623;28;20385;-63
2022/12/11 02:26:33;;;;;;;71.00;67.07;;;0.80;99.90;;;;;;5050834;28;20472;-62
2022/12/11 02:29:07;;;;;;;66.65;62.85;;;0.70;99.90;;;;;;5050989;28;20400;-63
2022/12/11 02:31:40;;;;;;;71.35;67.18;;;0.70;99.90;;;;;;5049573;28;20895;-63
2022/12/11 02:34:23;;;;;;;65.63;61.83;;;0.70;99.90;;;;;;5051750;28;20432;-64
2022/12/11 02:36:55;;;;;;;65.00;61.30;;;0.70;99.90;;;;;;5049551;28;20467;-64
2022/12/11 02:39:24;;;;;;;71.40;67.22;;;0.70;99.90;;;;;;5052297;28;20389;-63
2022/12/11 02:41:51;;;;;;;70.50;66.45;;;0.70;99.90;;;;;;5050644;28;20406;-63
2022/12/11 02:44:24;;;;;;;66.32;62.50;;;0.60;99.90;;;;;;5050969;28;20480;-64
2022/12/11 02:46:51;;;;;;;67.47;63.47;;;0.60;99.90;;;;;;5052544;28;20386;-62
2022/12/11 02:49:17;;;;;;;69.32;65.22;;;0.60;99.90;;;;;;5052044;28;20446;-63
2022/12/11 02:51:43;;;;;;;65.47;61.57;;;0.50;99.90;;;;;;5050952;28;20857;-64
2022/12/11 02:54:26;;;;;;;64.03;60.20;;;0.50;99.90;;;;;;5052233;28;20479;-63
2022/12/11 02:57:00;;;;;;;62.55;58.85;;;0.50;99.90;;;;;;5051377;28;20472;-63
2022/12/11 02:59:33;;;;;;;64.67;60.80;;;0.50;99.90;;;;;;5052292;28;20392;-63
2022/12/11 03:01:59;;;;;;;62.65;58.88;;;0.50;99.90;;;;;;5049601;28;20417;-62
2022/12/11 03:04:25;;;;;;;64.28;60.47;;;0.50;99.90;;;;;;5050642;28;20395;-63
2022/12/11 03:06:55;;;;;;;64.70;60.80;;;0.50;99.90;;;;;;5050247;28;20505;-63
2022/12/11 03:09:20;;;;;;;61.97;58.17;;;0.60;99.90;;;;;;5050102;28;20724;-64
2022/12/11 03:11:46;;;;;;;58.00;54.58;;;0.60;99.90;;;;;;5052012;28;20782;-62
2022/12/11 03:14:12;;;;;;;60.47;56.90;;;0.60;99.90;;;;;;5049915;28;20677;-62
2022/12/11 03:16:44;;;;;;;63.92;60.17;;;0.60;99.90;;;;;;5050308;28;20760;-63
2022/12/11 03:19:40;;;;;;;64.68;60.90;;;0.70;99.90;;;;;;5051677;28;20476;-62
2022/12/11 03:22:15;;;;;;;66.57;62.65;;;0.60;99.90;;;;;;5027456;28;20436;-63
2022/12/11 03:24:46;;;;;;;66.38;62.55;;;0.60;99.90;;;;;;5049382;28;20438;-62
2022/12/11 03:27:18;;;;;;;65.60;61.75;;;0.60;99.90;;;;;;5050249;28;20511;-62
2022/12/11 03:30:09;;;;;;;62.30;58.63;;;0.50;99.90;;;;;;5051183;28;20382;-63
2022/12/11 03:32:54;;;;;;;60.17;56.65;;;0.60;99.90;;;;;;5041029;28;20396;-62
2022/12/11 03:35:27;;;;;;;60.35;56.85;;;0.60;99.90;;;;;;5050046;28;20495;-63
2022/12/11 03:37:59;;;;;;;61.15;57.55;;;0.60;99.90;;;;;;5050832;28;20390;-63
2022/12/11 03:40:29;;;;;;;63.53;59.83;;;0.60;99.90;;;;;;5050883;28;20410;-61
2022/12/11 03:42:56;;;;;;;65.67;61.70;;;0.60;99.90;;;;;;5050196;28;20409;-61
2022/12/11 03:45:23;;;;;;;59.53;56.03;;;0.60;99.90;;;;;;5050043;28;20642;-62
2022/12/11 03:47:51;;;;;;;58.40;54.92;;;0.60;99.90;;;;;;5049021;28;20407;-62
2022/12/11 03:50:19;;;;;;;60.97;57.17;;;0.60;99.90;;;;;;5049351;28;20558;-62
2022/12/11 03:52:46;;;;;;;63.60;59.85;;;0.60;99.90;;;;;;5049603;28;20446;-63
2022/12/11 03:55:14;;;;;;;65.45;61.65;;;0.60;99.90;;;;;;5050020;28;20466;-62
2022/12/11 03:57:40;;;;;;;61.33;57.65;;;0.60;99.90;;;;;;5049109;28;20526;-62
2022/12/11 04:00:09;;;;;;;62.97;59.28;;;0.60;99.90;;;;;;5048583;28;20499;-63
2022/12/11 04:02:35;;;;;;;60.60;56.97;;;0.60;99.90;;;;;;5050073;28;20404;-62
2022/12/11 04:05:00;;;;;;;61.90;58.40;;;0.50;99.90;;;;;;5048804;28;20401;-62
2022/12/11 04:07:27;;;;;;;62.83;59.13;;;0.50;99.90;;;;;;5048789;28;20377;-62
2022/12/11 04:09:53;;;;;;;61.37;57.87;;;0.50;99.90;;;;;;5050044;28;20750;-62
2022/12/11 04:12:18;;;;;;;62.57;58.97;;;0.50;99.90;;;;;;5049928;28;20507;-63
2022/12/11 04:15:02;;;;;;;58.40;54.90;;;0.60;99.90;;;;;;5048854;28;20417;-63
2022/12/11 04:26:03;;;;;;;64.10;60.50;;;0.50;99.90;;;;;;5052888;28;20483;-63
2022/12/11 04:28:29;;;;;;;63.83;60.13;;;0.50;99.90;;;;;;5050291;28;20440;-62
2022/12/11 04:30:54;;;;;;;65.17;61.47;;;0.50;99.90;;;;;;5050282;28;20417;-61
2022/12/11 04:33:20;;;;;;;61.28;57.67;;;0.60;99.90;;;;;;5050988;28;20443;-63
2022/12/11 04:35:45;;;;;;;65.83;62.03;;;0.50;99.90;;;;;;5048614;28;20396;-62
2022/12/11 04:38:20;;;;;;;65.57;61.77;;;0.50;99.90;;;;;;5048717;28;20481;-62
2022/12/11 04:40:45;;;;;;;63.53;59.83;;;0.50;99.90;;;;;;5048088;28;20428;-62
2022/12/11 04:43:11;;;;;;;64.33;60.63;;;0.50;99.90;;;;;;5047694;28;20927;-62
2022/12/11 04:45:37;;;;;;;68.50;64.53;;;0.50;99.90;;;;;;5047185;28;20432;-62
2022/12/11 04:48:02;;;;;;;70.38;66.28;;;0.60;99.90;;;;;;5048041;28;20388;-62
2022/12/11 04:50:28;;;;;;;68.13;64.13;;;0.50;99.90;;;;;;5047507;28;20678;-62
2022/12/11 04:52:55;;;;;;;69.00;65.00;;;0.50;99.90;;;;;;5045828;28;20452;-63
2022/12/11 04:55:20;;;;;;;62.60;58.90;;;0.50;99.90;;;;;;5047138;28;20500;-64
2022/12/11 04:57:46;;;;;;;63.10;59.50;;;0.50;99.90;;;;;;5048602;28;20511;-63
2022/12/11 05:00:12;;;;;;;74.05;69.85;;;0.50;99.90;;;;;;5050001;28;20789;-63
2022/12/11 05:02:40;;;;;;;64.35;60.63;;;0.50;99.90;;;;;;5047976;28;20409;-62
2022/12/11 05:05:08;;;;;;;62.80;59.17;;;0.50;99.90;;;;;;5047629;28;20381;-63
2022/12/11 05:07:34;;;;;;;66.15;62.33;;;0.50;99.90;;;;;;5051478;28;20661;-62
2022/12/11 05:09:59;;;;;;;65.22;61.42;;;0.60;99.90;;;;;;5050497;28;20447;-63
2022/12/11 05:12:25;;;;;;;68.57;64.57;;;0.70;99.90;;;;;;5049564;28;20413;-63
2022/12/11 05:14:54;;;;;;;69.88;65.90;;;0.60;99.90;;;;;;5050315;28;20386;-63
2022/12/11 05:17:21;;;;;;;68.90;64.97;;;0.70;99.90;;;;;;5051403;28;20382;-63
2022/12/11 05:19:48;;;;;;;78.40;73.93;;;0.70;99.90;;;;;;5049362;28;20408;-62
2022/12/11 05:22:14;;;;;;;73.20;69.00;;;0.70;99.90;;;;;;5048237;28;20508;-62
2022/12/11 05:24:39;;;;;;;76.65;72.35;;;0.70;99.90;;;;;;5045799;28;20373;-62
2022/12/11 05:27:05;;;;;;;76.23;71.93;;;0.70;99.90;;;;;;5045361;28;20466;-63
2022/12/11 05:29:31;;;;;;;72.17;68.07;;;0.70;99.90;;;;;;5045234;28;20474;-63
2022/12/11 05:31:56;;;;;;;75.57;71.17;;;0.70;99.90;;;;;;5046613;28;20405;-63
2022/12/11 05:34:22;;;;;;;77.75;73.28;;;0.70;99.90;;;;;;5049171;28;20389;-62
2022/12/11 05:36:47;;;;;;;76.93;72.63;;;0.70;99.90;;;;;;5050029;28;20473;-63
2022/12/11 05:39:13;;;;;;;97.97;92.53;;;0.70;99.90;;;;;;5051185;28;20389;-62
2022/12/11 05:41:39;;;;;;;105.87;100.13;;;0.60;99.90;;;;;;5051698;28;20421;-63
2022/12/11 05:44:04;;;;;;;103.70;98.05;;;0.60;99.90;;;;;;5053940;28;20851;-62
2022/12/11 05:46:30;;;;;;;134.93;127.78;;;0.60;99.90;;;;;;5052038;28;20388;-62
2022/12/11 05:49:00;;;;;;;140.47;133.13;;;0.50;99.90;;;;;;5050796;28;20381;-62
2022/12/11 05:51:28;;;;;;;128.98;122.07;;;0.40;99.90;;;;;;5051960;28;20511;-62
2022/12/11 05:53:55;;;;;;;141.80;134.30;;;0.40;99.90;;;;;;5051307;28;20374;-62
2022/12/11 05:56:26;;;;;;;139.82;132.43;;;0.40;99.90;;;;;;5051930;28;20416;-63
2022/12/11 05:58:53;;;;;;;139.95;132.55;;;0.40;99.90;;;;;;5049680;28;20429;-62
2022/12/11 06:01:23;;;;;;;120.65;114.20;;;0.20;99.90;;;;;;5048627;28;20410;-62
2022/12/11 06:03:49;;;;;;;103.85;98.20;;;0.00;99.90;;;;;;5048031;28;20389;-62
2022/12/11 06:06:15;;;;;;;93.95;88.65;;;-0.10;99.90;;;;;;5047449;28;20663;-62
2022/12/11 06:08:41;;;;;;;91.93;86.90;;;0.00;99.90;;;;;;5046361;28;20947;-62
2022/12/11 06:11:07;;;;;;;93.87;88.57;;;0.10;99.90;;;;;;5046530;28;20459;-62
2022/12/11 06:13:33;;;;;;;84.88;79.97;;;0.00;99.90;;;;;;5045883;28;20695;-61
2022/12/11 06:16:01;;;;;;;78.18;73.68;;;-0.20;99.90;;;;;;5047787;28;20381;-63
2022/12/11 06:18:27;;;;;;;76.80;72.20;;;-0.20;99.90;;;;;;5050821;28;20455;-63
2022/12/11 06:20:53;;;;;;;77.57;73.00;;;-0.10;99.90;;;;;;5049343;28;20377;-62
2022/12/11 06:23:19;;;;;;;69.68;65.45;;;-0.20;99.90;;;;;;5048552;28;20401;-63
2022/12/11 06:25:45;;;;;;;79.28;74.65;;;-0.20;99.90;;;;;;5049916;28;20404;-62
2022/12/11 06:28:11;;;;;;;78.22;73.60;;;-0.20;99.90;;;;;;5049812;28;20412;-64
2022/12/11 06:30:36;;;;;;;73.17;68.80;;;-0.20;99.90;;;;;;5048965;28;20390;-63
2022/12/11 06:33:02;;;;;;;78.13;73.57;;;-0.20;99.90;;;;;;5049975;28;20898;-63
2022/12/11 06:35:28;;;;;;;86.50;81.50;;;-0.10;99.90;;;;;;5050069;28;20397;-63
2022/12/11 06:37:53;;;;;;;78.35;73.80;;;-0.20;99.90;;;;;;5049136;28;20385;-62
2022/12/11 06:40:19;;;;;;;72.93;68.55;;;-0.30;99.90;;;;;;5049616;28;20855;-62
2022/12/11 06:42:44;;;;;;;72.00;67.72;;;-0.20;99.90;;;;;;5051606;28;20510;-63
2022/12/11 06:45:10;;;;;;;74.73;70.40;;;-0.10;99.90;;;;;;5051138;28;20382;-63
2022/12/11 06:47:36;;;;;;;74.03;69.72;;;0.00;99.90;;;;;;5051719;28;20415;-63
2022/12/11 06:50:02;;;;;;;83.27;78.53;;;0.10;99.90;;;;;;5051386;28;20686;-62
2022/12/11 06:52:28;;;;;;;82.63;77.90;;;0.10;99.90;;;;;;5050362;28;20389;-63
2022/12/11 06:54:54;;;;;;;89.97;84.88;;;0.20;99.90;;;;;;5048341;28;20484;-63
2022/12/11 06:57:20;;;;;;;81.85;77.18;;;0.20;99.90;;;;;;5045906;28;20413;-62
2022/12/11 06:59:46;;;;;;;81.20;76.60;;;0.30;99.90;;;;;;5048098;28;20664;-63
2022/12/11 07:02:15;;;;;;;84.20;79.27;;;0.30;99.90;;;;;;5047329;28;20397;-63
2022/12/11 07:04:41;;;;;;;82.35;77.60;;;0.30;99.90;;;;;;5046670;28;20381;-62
2022/12/11 07:07:08;;;;;;;93.33;88.13;;;0.30;99.90;;;;;;5045769;28;20400;-63
2022/12/11 07:09:35;;;;;;;81.70;76.90;;;0.30;99.90;;;;;;5044844;28;20455;-63
2022/12/11 07:12:02;;;;;;;79.65;75.07;;;0.30;99.90;;;;;;5044221;28;20397;-63
2022/12/11 07:14:29;;;;;;;77.78;73.30;;;0.30;99.90;;;;;;5043584;28;20390;-62
2022/12/11 07:16:55;;;;;;;80.95;76.32;;;0.30;99.90;;;;;;5042693;28;20384;-62
2022/12/11 07:19:20;;;;;;;80.65;75.82;;;0.30;99.90;;;;;;5042011;28;20389;-63
2022/12/11 07:21:46;;;;;;;75.32;70.93;;;0.20;99.90;;;;;;5041469;28;20416;-64
2022/12/11 07:24:12;;;;;;;80.50;75.85;;;0.20;99.90;;;;;;5042233;28;20699;-64
2022/12/11 07:26:37;;;;;;;79.37;74.63;;;0.20;99.90;;;;;;5040996;28;20392;-63
2022/12/11 07:29:03;;;;;;;77.83;73.23;;;0.20;99.90;;;;;;5041474;28;20386;-63
2022/12/11 07:31:29;;;;;;;74.30;69.90;;;0.20;99.90;;;;;;5044636;28;20505;-63
2022/12/11 07:33:56;;;;;;;70.68;66.47;;;0.20;99.90;;;;;;5044770;28;20666;-63
2022/12/11 07:36:22;;;;;;;76.60;71.95;;;0.20;99.90;;;;;;5042809;28;20781;-63
2022/12/11 07:38:48;;;;;;;76.90;72.20;;;0.20;99.90;;;;;;5043582;28;20404;-62
2022/12/11 07:41:14;;;;;;;76.47;71.90;;;0.10;99.90;;;;;;5041362;28;20409;-63
2022/12/11 07:43:41;;;;;;;77.00;72.32;;;0.10;99.90;;;;;;5040419;28;20568;-63
2022/12/11 07:46:11;;;;;;;76.10;71.72;;;0.20;99.90;;;;;;5039875;28;20393;-63
2022/12/11 07:48:39;;;;;;;71.13;66.83;;;0.10;99.90;;;;;;5039417;28;20373;-62
2022/12/11 07:51:14;;;;;;;77.68;73.13;;;0.10;99.90;;;;;;5040540;28;20373;-63
2022/12/11 07:53:41;;;;;;;78.72;74.03;;;0.10;99.90;;;;;;5042394;28;20385;-63
2022/12/11 07:56:07;;;;;;;81.88;77.05;;;0.10;99.90;;;;;;5045692;28;20452;-63
2022/12/11 07:58:33;;;;;;;85.40;80.45;;;0.10;99.90;;;;;;5048427;28;20462;-63
2022/12/11 08:00:58;;;;;;;78.10;73.50;;;0.00;99.90;;;;;;5045274;28;20848;-63
2022/12/11 08:03:24;;;;;;;73.77;69.33;;;0.00;99.90;;;;;;5046064;28;20863;-62
2022/12/11 08:05:51;;;;;;;82.73;78.03;;;0.00;99.90;;;;;;5045224;28;20686;-63
2022/12/11 08:08:18;;;;;;;76.35;71.68;;;0.00;99.90;;;;;;5044980;28;20409;-62
2022/12/11 08:10:44;;;;;;;77.57;72.82;;;0.00;99.90;;;;;;5045021;28;20446;-63
2022/12/11 08:13:10;;;;;;;76.93;72.22;;;0.00;99.90;;;;;;5045709;28;20533;-62
2022/12/11 08:15:36;;;;;;;76.20;71.80;;;-0.10;99.90;;;;;;5046430;28;20404;-63
2022/12/11 08:18:02;;;;;;;85.13;80.22;;;0.00;99.90;;;;;;5043349;28;20424;-63
2022/12/11 08:20:29;;;;;;;81.07;76.28;;;0.00;99.90;;;;;;5040223;28;20385;-63
2022/12/11 08:22:55;;;;;;;76.20;71.70;;;-0.10;99.90;;;;;;5038452;28;20398;-64
2022/12/11 08:25:20;;;;;;;77.47;72.80;;;-0.10;99.90;;;;;;5040876;28;20382;-64
2022/12/11 08:27:46;;;;;;;78.00;73.30;;;0.00;99.90;;;;;;5041725;28;20760;-62
2022/12/11 08:30:12;;;;;;;79.22;74.47;;;0.00;99.90;;;;;;5040447;28;20723;-62
2022/12/11 08:32:37;;;;;;;77.82;73.07;;;0.00;99.90;;;;;;5039131;28;20393;-63
2022/12/11 08:35:03;;;;;;;79.43;74.73;;;0.00;99.90;;;;;;5040978;28;20467;-62
2022/12/11 08:37:29;;;;;;;73.97;69.67;;;0.00;99.90;;;;;;5041930;28;20425;-63
2022/12/11 08:39:54;;;;;;;74.33;69.97;;;0.00;99.90;;;;;;5041316;28;20385;-62
2022/12/11 08:42:20;;;;;;;76.53;71.93;;;0.00;99.90;;;;;;5046364;28;20710;-62
2022/12/11 08:44:46;;;;;;;71.20;66.93;;;0.00;99.90;;;;;;5046181;28;20545;-62
2022/12/11 08:47:11;;;;;;;69.93;65.75;;;0.00;99.90;;;;;;5044465;28;20643;-62
2022/12/11 08:49:37;;;;;;;68.82;64.63;;;0.00;99.90;;;;;;5047072;28;20396;-62
2022/12/11 08:52:04;;;;;;;69.93;65.90;;;0.00;99.90;;;;;;5049024;28;20658;-63
2022/12/11 08:54:29;;;;;;;69.97;65.70;;;0.00;99.90;;;;;;5046720;28;20389;-62
2022/12/11 08:56:56;;;;;;;70.27;65.97;;;0.00;99.90;;;;;;5045587;28;20467;-62
2022/12/11 08:59:21;;;;;;;72.88;68.43;;;0.00;99.90;;;;;;5047165;28;20385;-62
2022/12/11 09:01:47;;;;;;;67.80;63.72;;;-0.10;99.90;;;;;;5047206;28;20397;-64
2022/12/11 09:04:13;;;;;;;69.25;65.07;;;0.00;99.90;;;;;;5050103;28;20396;-63
2022/12/11 09:06:39;;;;;;;65.53;61.60;;;0.10;99.90;;;;;;5051911;28;20885;-62
2022/12/11 09:09:06;;;;;;;51.60;48.30;;;0.40;99.90;;;;;;5051954;28;20401;-63
2022/12/11 09:11:35;;;;;;;73.18;69.00;;;1.00;99.90;;;;;;5050978;28;20450;-63
2022/12/11 09:14:01;;;;;;;127.40;120.63;;;1.80;99.90;;;;;;5049183;28;20393;-64
2022/12/11 09:16:27;;;;;;;165.93;157.43;;;2.60;99.90;;;;;;5048512;28;20382;-62
2022/12/11 09:18:55;;;;;;;249.45;237.25;;;3.40;99.90;;;;;;5047141;28;20377;-64
2022/12/11 09:21:24;;;;;;;236.95;225.40;;;4.10;99.90;;;;;;5047355;28;20709;-64
2022/12/11 09:23:53;;;;;;;210.23;199.55;;;4.50;99.90;;;;;;5046990;28;20369;-63
2022/12/11 09:26:19;;;;;;;199.07;188.97;;;4.30;99.90;;;;;;5045771;28;20431;-62
2022/12/11 09:28:45;;;;;;;187.45;177.88;;;3.90;99.90;;;;;;5046018;28;20459;-63
2022/12/11 09:31:14;;;;;;;195.15;185.27;;;3.40;99.90;;;;;;5044073;28;20649;-63
2022/12/11 09:33:40;;;;;;;226.90;215.68;;;3.10;99.90;;;;;;5044086;28;20416;-63
2022/12/11 09:36:06;;;;;;;226.40;215.32;;;2.90;99.90;;;;;;5044207;28;20394;-63
2022/12/11 09:38:33;;;;;;;226.10;214.90;;;2.90;99.90;;;;;;5044503;28;20897;-62
2022/12/11 09:40:59;;;;;;;213.35;202.68;;;2.60;99.90;;;;;;5042862;28;20401;-62
2022/12/11 09:43:44;;;;;;;236.53;224.90;;;2.50;99.90;;;;;;5045093;28;20872;-63
2022/12/11 09:46:12;;;;;;;255.87;243.30;;;2.30;99.90;;;;;;5046230;28;20480;-64
2022/12/11 09:48:42;;;;;;;246.43;234.32;;;2.30;99.90;;;;;;5045713;28;20374;-63
2022/12/11 09:51:19;;;;;;;272.52;259.08;;;2.20;99.90;;;;;;5046282;28;20377;-63
2022/12/11 09:53:45;;;;;;;272.83;259.33;;;2.10;99.90;;;;;;5048807;28;20381;-62
2022/12/11 09:56:30;;;;;;;281.55;267.48;;;2.00;99.90;;;;;;5047448;28;20368;-63
2022/12/11 09:59:21;;;;;;;281.15;267.27;;;1.80;99.90;;;;;;5047948;28;20390;-62
2022/12/11 10:02:34;;;;;;;283.40;269.38;;;1.90;99.90;;;;;;5049068;28;20409;-63
2022/12/11 10:05:14;;;;;;;294.33;279.77;;;2.00;99.90;;;;;;5048559;28;20374;-63
2022/12/11 10:07:54;;;;;;;283.75;269.90;;;2.10;99.90;;;;;;5047541;28;20476;-62
2022/12/11 10:10:55;;;;;;;281.85;267.85;;;2.20;99.90;;;;;;5047460;28;20763;-63
2022/12/11 10:13:35;;;;;;;287.10;272.85;;;2.30;99.90;;;;;;5042286;28;20447;-62
2022/12/11 10:16:32;;;;;;;281.27;267.17;;;2.30;99.90;;;;;;5046275;28;20417;-63
2022/12/11 10:18:58;;;;;;;294.02;279.30;;;2.30;99.90;;;;;;5045570;28;20933;-64
2022/12/11 10:21:25;;;;;;;293.33;279.00;;;2.30;99.90;;;;;;5045092;28;20795;-64
2022/12/11 10:23:59;;;;;;;306.98;291.77;;;2.30;99.90;;;;;;5045995;28;20389;-62
2022/12/11 10:26:28;;;;;;;303.48;288.60;;;2.30;99.90;;;;;;5046244;28;20385;-62
2022/12/11 10:28:59;;;;;;;298.48;283.83;;;2.50;99.90;;;;;;5046157;28;20515;-63
2022/12/11 10:31:47;;;;;;;291.27;276.90;;;2.50;99.90;;;;;;5044643;28;20412;-62
2022/12/11 10:34:36;;;;;;;320.73;304.98;;;2.50;99.90;;;;;;5044248;28;21023;-62
2022/12/11 10:37:02;;;;;;;325.65;309.50;;;2.50;99.90;;;;;;5045717;28;20396;-62
2022/12/11 10:39:28;;;;;;;314.88;299.45;;;2.60;99.90;;;;;;5045885;28;20382;-62
2022/12/11 10:41:55;;;;;;;324.88;308.92;;;2.70;99.90;;;;;;5046309;28;20520;-62
2022/12/11 10:44:22;;;;;;;325.48;309.50;;;2.70;99.90;;;;;;5047268;28;20420;-63
2022/12/11 10:47:01;;;;;;;311.33;295.77;;;2.70;99.90;;;;;;5048824;28;20382;-63
2022/12/11 10:49:34;;;;;;;329.00;312.83;;;2.70;99.90;;;;;;5050786;28;20990;-64
2022/12/11 10:52:08;;;;;;;333.50;316.85;;;2.70;99.90;;;;;;5049001;28;20528;-63
2022/12/11 10:54:44;;;;;;;321.20;305.25;;;2.70;99.90;;;;;;5046408;28;20797;-63
2022/12/11 10:57:13;;;;;;;334.90;318.30;;;2.50;99.90;;;;;;5047951;28;20785;-63
2022/12/11 10:59:42;;;;;;;345.13;328.13;;;2.70;99.90;;;;;;5046824;28;20415;-63
2022/12/11 11:02:21;;;;;;;334.83;318.27;;;2.90;99.90;;;;;;5045514;28;20751;-63
2022/12/11 11:04:47;;;;;;;350.67;333.35;;;3.00;99.90;;;;;;5046511;28;20908;-63
2022/12/11 11:07:19;;;;;;;332.05;315.65;;;3.10;99.90;;;;;;5046130;28;20443;-63
2022/12/11 11:09:45;;;;;;;342.42;325.70;;;3.30;99.90;;;;;;5046389;28;21109;-63
2022/12/11 11:12:18;;;;;;;342.17;325.15;;;3.40;99.90;;;;;;5048887;28;20500;-65
2022/12/11 11:14:44;;;;;;;334.77;318.25;;;3.50;99.90;;;;;;5047789;28;20389;-63
2022/12/11 11:17:14;;;;;;;329.40;313.00;;;3.50;99.90;;;;;;5046762;28;20493;-64
2022/12/11 11:19:40;;;;;;;330.35;314.13;;;3.60;99.90;;;;;;5047842;28;20389;-65
2022/12/11 11:22:16;;;;;;;305.52;290.23;;;3.60;99.90;;;;;;5047070;28;20409;-64
2022/12/11 11:24:54;;;;;;;290.33;275.83;;;3.50;99.90;;;;;;5047008;28;20480;-63
2022/12/11 11:27:29;;;;;;;291.58;277.10;;;3.50;99.90;;;;;;5044546;28;20400;-63
2022/12/11 11:29:58;;;;;;;293.52;278.73;;;3.30;99.90;;;;;;5045259;28;20396;-59
2022/12/11 11:32:30;;;;;;;310.92;295.52;;;3.40;99.90;;;;;;5047863;28;20394;-55
2022/12/11 11:35:13;;;;;;;309.23;293.65;;;3.20;99.90;;;;;;5048627;28;20389;-57
2022/12/11 11:37:41;;;;;;;313.60;297.95;;;3.10;99.90;;;;;;5045410;28;20397;-64
2022/12/11 11:40:21;;;;;;;318.90;303.13;;;3.10;99.90;;;;;;5045988;28;20403;-63
2022/12/11 11:42:57;;;;;;;312.60;297.10;;;3.50;99.90;;;;;;5045011;28;20421;-63
2022/12/11 11:45:41;;;;;;;301.60;286.58;;;3.80;99.90;;;;;;5042512;28;20424;-64
2022/12/11 11:48:27;;;;;;;297.83;283.08;;;4.00;99.90;;;;;;5042982;28;20451;-64
2022/12/11 11:50:53;;;;;;;285.40;271.30;;;4.20;99.90;;;;;;5041865;28;20384;-64
2022/12/11 11:53:23;;;;;;;281.40;267.10;;;4.40;99.90;;;;;;5044329;28;20389;-64
2022/12/11 11:55:57;;;;;;;260.77;247.73;;;4.70;99.90;;;;;;5038735;28;20673;-63
2022/12/11 11:58:36;;;;;;;262.63;249.48;;;4.80;99.90;;;;;;5037179;28;20416;-64
2022/12/11 12:01:02;;;;;;;269.50;256.15;;;4.30;99.90;;;;;;5034604;28;20781;-64
2022/12/11 12:03:28;;;;;;;269.83;256.42;;;4.40;99.90;;;;;;5032468;28;20412;-63
2022/12/11 12:06:05;;;;;;;276.27;262.38;;;4.70;99.90;;;;;;5032878;28;20456;-64
2022/12/11 12:08:40;;;;;;;272.30;258.85;;;5.00;99.90;;;;;;5033050;28;20690;-64
2022/12/11 12:11:22;;;;;;;260.42;247.35;;;5.30;99.90;;;;;;5032669;28;20389;-62
2022/12/11 12:14:07;;;;;;;274.73;260.77;;;5.30;99.90;;;;;;5031635;28;20737;-64
2022/12/11 12:16:51;;;;;;;268.35;254.70;;;5.40;99.90;;;;;;5031568;28;20450;-64
2022/12/11 12:19:26;;;;;;;270.48;256.60;;;5.40;99.90;;;;;;5035260;28;20381;-63
2022/12/11 12:21:52;;;;;;;275.33;261.30;;;5.60;99.90;;;;;;5036392;28;20537;-63
2022/12/11 12:24:56;;;;;;;269.67;255.80;;;5.70;99.90;;;;;;5035726;28;20441;-63
2022/12/11 12:27:59;;;;;;;269.35;255.80;;;5.50;99.90;;;;;;5036068;28;21010;-64
2022/12/11 12:30:31;;;;;;;290.42;275.52;;;5.70;99.90;;;;;;5043141;28;20844;-64
2022/12/11 12:33:17;;;;;;;308.70;292.88;;;5.60;99.90;;;;;;5045574;28;20483;-64
2022/12/11 12:35:54;;;;;;;303.00;287.67;;;5.70;99.90;;;;;;5046596;28;20389;-62
2022/12/11 12:38:33;;;;;;;292.42;277.50;;;5.70;99.90;;;;;;5044978;28;20425;-61
2022/12/11 12:41:14;;;;;;;318.57;302.47;;;5.80;99.90;;;;;;5046020;28;20415;-62
2022/12/11 12:43:47;;;;;;;329.25;312.48;;;5.50;99.90;;;;;;5046956;28;20409;-63
2022/12/11 12:46:28;;;;;;;333.30;316.45;;;5.80;99.90;;;;;;5046435;28;20381;-62
2022/12/11 12:48:55;;;;;;;330.60;313.52;;;6.10;99.90;;;;;;5046012;28;20397;-62
2022/12/11 12:51:21;;;;;;;345.05;327.48;;;6.30;99.90;;;;;;5045199;28;20393;-62